createdAt,value
2018-03-23T00:00:03.181Z,3.53
2018-03-23T00:02:29.730Z,3.43
2018-03-23T00:04:56.793Z,3.70
2018-03-23T00:07:23.248Z,3.20
2018-03-23T00:09:50.560Z,3.17
2018-03-23T00:12:17.040Z,3.07
2018-03-23T00:14:44.223Z,3.00
2018-03-23T00:17:11.424Z,3.53
2018-03-23T00:19:37.858Z,3.50
2018-03-23T00:22:04.570Z,3.00
2018-03-23T00:24:31.167Z,3.00
2018-03-23T00:26:58.201Z,3.30
2018-03-23T00:29:24.626Z,3.03
2018-03-23T00:31:51.499Z,2.77
2018-03-23T00:34:18.115Z,2.73
2018-03-23T00:36:45.196Z,2.73
2018-03-23T00:39:12.818Z,2.40
2018-03-23T00:41:39.706Z,3.30
2018-03-23T00:44:06.377Z,2.47
2018-03-23T00:46:33.561Z,2.40
2018-03-23T00:49:00.149Z,2.57
2018-03-23T00:51:26.595Z,2.40
2018-03-23T00:53:53.231Z,2.73
2018-03-23T00:56:19.879Z,2.20
2018-03-23T00:58:46.822Z,2.10
2018-03-23T01:01:14.069Z,2.63
2018-03-23T01:03:40.667Z,2.50
2018-03-23T01:06:07.261Z,2.20
2018-03-23T01:08:33.686Z,2.53
2018-03-23T01:11:00.442Z,2.53
2018-03-23T01:13:27.494Z,2.20
2018-03-23T01:15:53.902Z,2.27
2018-03-23T01:18:20.680Z,2.00
2018-03-23T01:20:47.126Z,2.47
2018-03-23T01:23:13.535Z,2.23
2018-03-23T01:25:40.831Z,2.10
2018-03-23T01:28:07.254Z,2.57
2018-03-23T01:30:34.431Z,1.87
2018-03-23T01:33:00.829Z,2.60
2018-03-23T01:35:27.438Z,2.40
2018-03-23T01:37:54.036Z,2.63
2018-03-23T01:40:21.089Z,2.03
2018-03-23T01:42:47.539Z,2.30
2018-03-23T01:45:14.265Z,2.30
2018-03-23T01:47:41.182Z,2.00
2018-03-23T01:50:07.563Z,2.60
2018-03-23T01:52:34.412Z,2.27
2018-03-23T01:55:00.845Z,2.20
2018-03-23T01:57:27.456Z,2.03
2018-03-23T01:59:54.650Z,2.33
2018-03-23T02:02:21.041Z,2.00
2018-03-23T02:04:47.616Z,2.63
2018-03-23T02:07:14.272Z,2.20
2018-03-23T02:09:40.689Z,2.07
2018-03-23T02:12:07.804Z,2.30
2018-03-23T02:14:34.401Z,1.97
2018-03-23T02:17:01.252Z,2.50
2018-03-23T02:19:27.696Z,2.07
2018-03-23T02:21:54.227Z,1.90
2018-03-23T02:24:21.276Z,2.33
2018-03-23T02:26:48.448Z,2.27
2018-03-23T02:29:15.761Z,2.30
2018-03-23T02:31:42.436Z,2.10
2018-03-23T02:34:08.831Z,1.87
2018-03-23T02:36:36.072Z,1.90
2018-03-23T02:41:59.530Z,2.33
2018-03-23T02:44:26.954Z,2.17
2018-03-23T02:46:54.132Z,2.13
2018-03-23T02:49:20.658Z,2.27
2018-03-23T02:51:47.098Z,2.10
2018-03-23T02:54:13.525Z,2.27
2018-03-23T02:56:40.603Z,1.90
2018-03-23T02:59:07.658Z,2.03
2018-03-23T03:01:34.257Z,2.23
2018-03-23T03:04:00.837Z,2.10
2018-03-23T03:06:27.244Z,2.17
2018-03-23T03:08:53.859Z,2.17
2018-03-23T03:11:21.135Z,2.40
2018-03-23T03:13:47.585Z,1.80
2018-03-23T03:16:13.974Z,2.43
2018-03-23T03:18:41.307Z,2.50
2018-03-23T03:21:07.721Z,1.80
2018-03-23T03:23:34.806Z,1.97
2018-03-23T03:26:01.452Z,2.53
2018-03-23T03:28:28.196Z,2.33
2018-03-23T03:30:55.246Z,2.33
2018-03-23T03:33:22.191Z,1.80
2018-03-23T03:35:48.699Z,2.10
2018-03-23T03:38:15.828Z,2.13
2018-03-23T03:40:42.373Z,2.90
2018-03-23T03:43:08.788Z,2.17
2018-03-23T03:45:35.943Z,2.10
2018-03-23T03:48:02.772Z,1.97
2018-03-23T03:50:29.799Z,2.00
2018-03-23T03:52:56.224Z,2.10
2018-03-23T03:55:22.920Z,1.87
2018-03-23T03:57:49.345Z,2.20
2018-03-23T04:00:16.267Z,2.03
2018-03-23T04:02:43.860Z,2.20
2018-03-23T04:05:10.285Z,2.30
2018-03-23T04:07:37.464Z,2.20
2018-03-23T04:10:04.089Z,2.00
2018-03-23T04:12:30.501Z,2.00
2018-03-23T04:14:57.468Z,2.10
2018-03-23T04:17:24.694Z,1.80
2018-03-23T04:19:51.132Z,1.80
2018-03-23T04:22:17.560Z,1.80
2018-03-23T04:24:44.084Z,2.00
2018-03-23T04:27:11.375Z,2.00
2018-03-23T04:29:38.428Z,2.20
2018-03-23T04:32:05.133Z,2.10
2018-03-23T04:34:31.747Z,2.07
2018-03-23T04:36:58.197Z,2.00
2018-03-23T04:39:24.764Z,1.80
2018-03-23T04:41:52.400Z,1.90
2018-03-23T04:44:19.412Z,1.67
2018-03-23T04:46:46.110Z,1.40
2018-03-23T04:49:12.506Z,1.50
2018-03-23T04:51:38.926Z,1.60
2018-03-23T04:54:06.128Z,1.10
2018-03-23T04:56:33.191Z,1.80
2018-03-23T04:58:59.593Z,1.50
2018-03-23T05:01:26.262Z,1.23
2018-03-23T05:03:52.661Z,1.30
2018-03-23T05:06:19.715Z,1.40
2018-03-23T05:08:46.243Z,1.60
2018-03-23T05:11:12.838Z,1.00
2018-03-23T05:13:39.246Z,1.07
2018-03-23T05:16:05.777Z,1.13
2018-03-23T05:18:32.791Z,1.10
2018-03-23T05:21:00.617Z,1.50
2018-03-23T05:23:27.200Z,1.30
2018-03-23T05:25:53.917Z,1.00
2018-03-23T05:28:20.317Z,1.43
2018-03-23T05:30:47.064Z,1.30
2018-03-23T05:33:14.218Z,1.30
2018-03-23T05:35:40.628Z,1.40
2018-03-23T05:38:08.068Z,1.23
2018-03-23T05:40:34.476Z,1.20
2018-03-23T05:43:01.004Z,1.40
2018-03-23T05:45:28.191Z,1.20
2018-03-23T05:47:54.604Z,1.50
2018-03-23T05:50:21.257Z,1.20
2018-03-23T05:52:48.006Z,1.50
2018-03-23T05:55:14.409Z,1.10
2018-03-23T05:57:41.450Z,1.70
2018-03-23T06:00:08.801Z,1.40
2018-03-23T06:02:36.588Z,1.20
2018-03-23T06:05:03.602Z,1.20
2018-03-23T06:07:30.133Z,1.63
2018-03-23T06:09:57.353Z,1.40
2018-03-23T06:12:23.772Z,1.50
2018-03-23T06:14:50.169Z,1.53
2018-03-23T06:17:17.374Z,1.33
2018-03-23T06:19:43.760Z,1.30
2018-03-23T06:22:10.235Z,1.50
2018-03-23T06:24:37.513Z,1.40
2018-03-23T06:27:04.397Z,1.40
2018-03-23T06:29:31.996Z,1.00
2018-03-23T06:31:58.412Z,1.40
2018-03-23T06:34:24.824Z,1.50
2018-03-23T06:36:51.492Z,1.40
2018-03-23T06:39:18.637Z,1.73
2018-03-23T06:41:45.098Z,1.20
2018-03-23T06:44:11.947Z,1.20
2018-03-23T06:46:38.373Z,1.37
2018-03-23T06:49:04.787Z,1.50
2018-03-23T06:51:31.870Z,1.20
2018-03-23T06:53:59.272Z,1.43
2018-03-23T06:56:25.815Z,1.63
2018-03-23T06:58:52.220Z,1.30
2018-03-23T07:01:19.571Z,1.87
2018-03-23T07:03:45.993Z,1.77
2018-03-23T07:06:13.065Z,1.80
2018-03-23T07:08:40.073Z,2.10
2018-03-23T07:11:06.504Z,2.00
2018-03-23T07:13:33.223Z,1.90
2018-03-23T07:16:00.401Z,1.73
2018-03-23T07:18:27.496Z,2.27
2018-03-23T07:20:54.914Z,1.93
2018-03-23T07:23:21.927Z,2.27
2018-03-23T07:25:48.364Z,3.50
2018-03-23T07:28:14.801Z,3.17
2018-03-23T07:30:42.111Z,3.27
2018-03-23T07:33:09.666Z,2.80
2018-03-23T07:35:36.559Z,5.40
2018-03-23T07:38:03.234Z,4.17
2018-03-23T07:40:30.376Z,3.83
2018-03-23T07:42:57.554Z,3.90
2018-03-23T07:45:25.359Z,3.97
2018-03-23T07:47:51.790Z,3.93
2018-03-23T07:50:18.480Z,5.03
2018-03-23T07:52:44.892Z,5.83
2018-03-23T07:55:11.939Z,7.70
2018-03-23T07:57:38.492Z,7.77
2018-03-23T08:00:06.006Z,7.30
2018-03-23T08:02:32.451Z,7.37
2018-03-23T08:04:59.363Z,6.37
2018-03-23T08:07:25.912Z,6.97
2018-03-23T08:09:52.314Z,7.23
2018-03-23T08:12:18.746Z,6.23
2018-03-23T08:14:45.417Z,5.80
2018-03-23T08:17:12.674Z,5.40
2018-03-23T08:19:39.632Z,5.70
2018-03-23T08:22:06.056Z,5.37
2018-03-23T08:24:33.891Z,4.70
2018-03-23T08:27:00.749Z,5.57
2018-03-23T08:29:27.950Z,4.67
2018-03-23T08:31:54.370Z,4.83
2018-03-23T08:34:21.268Z,4.60
2018-03-23T08:36:47.700Z,4.30
2018-03-23T08:39:14.721Z,4.50
2018-03-23T08:41:41.805Z,4.60
2018-03-23T08:44:09.386Z,3.93
2018-03-23T08:46:36.092Z,4.63
2018-03-23T08:49:02.525Z,4.20
2018-03-23T08:51:29.564Z,4.50
2018-03-23T08:53:55.978Z,4.13
2018-03-23T08:56:22.861Z,4.30
2018-03-23T08:58:50.421Z,3.83
2018-03-23T09:01:18.040Z,4.53
2018-03-23T09:03:44.896Z,4.23
2018-03-23T09:06:11.343Z,5.70
2018-03-23T09:08:38.025Z,6.07
2018-03-23T09:11:05.684Z,6.27
2018-03-23T09:13:32.751Z,6.43
2018-03-23T09:15:59.441Z,6.00
2018-03-23T09:18:26.295Z,6.23
2018-03-23T09:20:53.832Z,6.60
2018-03-23T09:23:21.660Z,6.23
2018-03-23T09:25:49.266Z,6.50
2018-03-23T09:28:17.695Z,5.90
2018-03-23T09:30:45.800Z,6.20
2018-03-23T09:33:12.857Z,5.70
2018-03-23T09:35:40.013Z,5.83
2018-03-23T09:38:07.048Z,5.80
2018-03-23T09:40:33.463Z,5.90
2018-03-23T09:43:01.061Z,5.17
2018-03-23T09:45:28.880Z,4.00
2018-03-23T09:47:55.290Z,5.10
2018-03-23T09:50:22.977Z,4.10
2018-03-23T09:52:50.537Z,4.33
2018-03-23T09:55:17.038Z,2.90
2018-03-23T09:57:44.617Z,3.17
2018-03-23T10:00:12.209Z,3.63
2018-03-23T10:02:39.055Z,3.10
2018-03-23T10:05:06.382Z,3.10
2018-03-23T10:07:33.230Z,3.77
2018-03-23T10:09:59.772Z,3.40
2018-03-23T10:12:26.186Z,3.27
2018-03-23T10:14:53.061Z,3.17
2018-03-23T10:17:19.524Z,3.43
2018-03-23T10:19:46.905Z,3.43
2018-03-23T10:22:14.198Z,3.20
2018-03-23T10:24:40.614Z,3.67
2018-03-23T10:27:07.039Z,3.17
2018-03-23T10:29:34.348Z,3.30
2018-03-23T10:32:01.809Z,3.03
2018-03-23T10:34:28.670Z,3.30
2018-03-23T10:36:55.807Z,3.30
2018-03-23T10:39:22.226Z,3.43
2018-03-23T10:41:49.103Z,3.43
2018-03-23T10:44:16.611Z,3.20
2018-03-23T10:46:43.532Z,3.10
2018-03-23T10:49:11.178Z,3.20
2018-03-23T10:51:37.592Z,3.10
2018-03-23T10:54:04.983Z,3.30
2018-03-23T10:56:32.515Z,3.00
2018-03-23T10:58:59.844Z,3.30
2018-03-23T11:01:31.801Z,2.77
2018-03-23T11:03:58.715Z,3.30
2018-03-23T11:06:25.700Z,3.13
2018-03-23T11:08:53.230Z,3.10
2018-03-23T11:11:20.187Z,2.93
2018-03-23T11:13:46.924Z,3.10
2018-03-23T11:16:13.989Z,2.90
2018-03-23T11:18:41.022Z,3.10
2018-03-23T11:21:08.712Z,3.17
2018-03-23T11:23:36.225Z,3.23
2018-03-23T11:26:03.220Z,2.63
2018-03-23T11:28:30.356Z,3.23
2018-03-23T11:30:57.207Z,2.93
2018-03-23T11:33:24.119Z,2.83
2018-03-23T11:35:51.780Z,2.57
2018-03-23T11:38:18.193Z,2.50
2018-03-23T11:40:45.628Z,2.60
2018-03-23T11:43:12.797Z,2.20
2018-03-23T11:45:39.204Z,2.40
2018-03-23T11:48:06.327Z,2.20
2018-03-23T11:50:33.014Z,1.93
2018-03-23T11:52:59.434Z,2.13
2018-03-23T11:55:26.053Z,1.80
2018-03-23T11:57:52.632Z,2.00
2018-03-23T12:00:19.113Z,2.27
2018-03-23T12:02:45.554Z,2.33
2018-03-23T12:05:13.625Z,2.23
2018-03-23T12:07:41.421Z,1.77
2018-03-23T12:10:07.847Z,2.00
2018-03-23T12:12:34.401Z,1.80
2018-03-23T12:15:01.076Z,2.10
2018-03-23T12:17:27.492Z,1.67
2018-03-23T12:19:54.283Z,3.50
2018-03-23T12:22:20.727Z,3.30
2018-03-23T12:24:47.876Z,3.00
2018-03-23T12:27:15.941Z,3.23
2018-03-23T12:29:43.738Z,3.30
2018-03-23T12:32:11.896Z,2.97
2018-03-23T12:34:39.442Z,3.03
2018-03-23T12:37:06.397Z,3.00
2018-03-23T12:39:34.382Z,2.90
2018-03-23T12:42:01.742Z,3.37
2018-03-23T12:44:28.171Z,2.87
2018-03-23T12:46:55.224Z,2.77
2018-03-23T12:49:22.694Z,3.03
2018-03-23T12:51:49.112Z,2.43
2018-03-23T12:54:16.036Z,2.70
2018-03-23T12:56:43.496Z,2.00
2018-03-23T12:59:10.425Z,3.00
2018-03-23T13:01:38.257Z,2.40
2018-03-23T13:04:05.830Z,2.60
2018-03-23T13:06:32.782Z,2.70
2018-03-23T13:08:59.705Z,2.33
2018-03-23T13:11:26.584Z,2.70
2018-03-23T13:13:53.386Z,2.40
2018-03-23T13:16:19.802Z,2.30
2018-03-23T13:18:46.442Z,2.20
2018-03-23T13:21:14.170Z,2.40
2018-03-23T13:23:41.301Z,2.10
2018-03-23T13:26:08.360Z,2.27
2018-03-23T13:28:35.440Z,2.57
2018-03-23T13:31:01.928Z,2.03
2018-03-23T13:33:28.928Z,2.50
2018-03-23T13:35:55.897Z,2.53
2018-03-23T13:38:23.453Z,2.30
2018-03-23T13:40:51.345Z,2.43
2018-03-23T13:43:19.038Z,2.50
2018-03-23T13:45:45.927Z,2.23
2018-03-23T13:48:12.929Z,2.47
2018-03-23T13:50:39.931Z,2.30
2018-03-23T13:53:06.537Z,2.40
2018-03-23T13:55:34.017Z,2.03
2018-03-23T13:58:00.921Z,2.57
2018-03-23T14:00:34.474Z,2.40
2018-03-23T14:03:01.333Z,2.50
2018-03-23T14:05:27.761Z,3.13
2018-03-23T14:07:55.567Z,2.70
2018-03-23T14:10:23.926Z,2.87
2018-03-23T14:12:51.016Z,1.97
2018-03-23T14:15:17.454Z,1.70
2018-03-23T14:17:45.241Z,2.23
2018-03-23T14:20:11.625Z,1.93
2018-03-23T14:22:39.421Z,2.00
2018-03-23T14:25:07.493Z,1.90
2018-03-23T14:27:33.909Z,1.73
2018-03-23T14:30:00.739Z,1.77
2018-03-23T14:32:27.552Z,1.80
2018-03-23T14:34:54.972Z,1.70
2018-03-23T14:37:22.536Z,1.40
2018-03-23T14:39:49.983Z,1.77
2018-03-23T14:42:16.951Z,1.77
2018-03-23T14:44:43.969Z,1.33
2018-03-23T14:47:11.074Z,1.80
2018-03-23T14:49:38.247Z,1.70
2018-03-23T14:52:05.913Z,1.87
2018-03-23T14:54:32.841Z,1.53
2018-03-23T14:57:00.890Z,1.70
2018-03-23T14:59:27.375Z,1.60
2018-03-23T15:01:54.243Z,1.80
2018-03-23T15:04:21.397Z,1.73
2018-03-23T15:06:47.882Z,1.70
2018-03-23T15:09:14.531Z,1.80
2018-03-23T15:11:41.324Z,1.80
2018-03-23T15:14:17.052Z,1.60
2018-03-23T15:16:44.321Z,1.47
2018-03-23T15:19:11.833Z,1.70
2018-03-23T15:21:38.425Z,1.80
2018-03-23T15:24:05.089Z,1.97
2018-03-23T15:26:31.578Z,1.67
2018-03-23T15:28:58.907Z,2.70
2018-03-23T15:31:26.509Z,2.40
2018-03-23T15:33:53.390Z,1.80
2018-03-23T15:36:20.510Z,1.80
2018-03-23T15:38:47.136Z,2.20
2018-03-23T15:41:14.328Z,2.00
2018-03-23T15:43:42.280Z,2.30
2018-03-23T15:46:10.282Z,1.87
2018-03-23T15:48:37.306Z,2.00
2018-03-23T15:51:04.454Z,1.57
2018-03-23T15:53:31.346Z,2.63
2018-03-23T15:55:57.916Z,2.07
2018-03-23T15:58:24.355Z,2.10
2018-03-23T16:00:51.165Z,2.07
2018-03-23T16:03:17.610Z,2.27
2018-03-23T16:05:44.032Z,2.53
2018-03-23T16:08:11.139Z,2.57
2018-03-23T16:10:40.039Z,2.83
2018-03-23T16:13:07.684Z,2.90
2018-03-23T16:15:34.884Z,2.07
2018-03-23T16:18:01.365Z,2.43
2018-03-23T16:20:27.938Z,2.47
2018-03-23T16:22:54.756Z,2.43
2018-03-23T16:25:22.694Z,2.00
2018-03-23T16:27:50.765Z,2.30
2018-03-23T16:30:17.322Z,2.10
2018-03-23T16:32:44.653Z,2.60
2018-03-23T16:35:11.128Z,2.03
2018-03-23T16:37:37.804Z,2.30
2018-03-23T16:40:05.732Z,2.57
2018-03-23T16:42:33.630Z,2.33
2018-03-23T16:45:00.577Z,3.47
2018-03-23T16:47:27.177Z,4.10
2018-03-23T16:49:54.380Z,3.10
2018-03-23T16:52:20.835Z,4.00
2018-03-23T16:54:47.842Z,3.77
2018-03-23T16:57:15.493Z,4.13
2018-03-23T16:59:43.274Z,3.80
2018-03-23T17:02:10.971Z,3.60
2018-03-23T17:04:37.376Z,3.47
2018-03-23T17:07:04.101Z,3.50
2018-03-23T17:09:30.626Z,3.93
2018-03-23T17:11:59.093Z,3.03
2018-03-23T17:14:25.666Z,3.27
2018-03-23T17:16:52.169Z,2.83
2018-03-23T17:19:18.681Z,2.90
2018-03-23T17:21:46.835Z,3.23
2018-03-23T17:24:13.873Z,2.60
2018-03-23T17:26:40.783Z,2.93
2018-03-23T17:29:07.431Z,2.07
2018-03-23T17:31:34.572Z,2.37
2018-03-23T17:34:01.194Z,2.47
2018-03-23T17:36:28.320Z,2.40
2018-03-23T17:38:55.445Z,2.00
2018-03-23T17:41:22.589Z,2.43
2018-03-23T17:43:49.628Z,2.30
2018-03-23T17:46:17.924Z,2.17
2018-03-23T17:48:45.172Z,2.20
2018-03-23T17:51:12.481Z,2.00
2018-03-23T17:53:39.211Z,2.30
2018-03-23T17:56:06.348Z,2.30
2018-03-23T17:58:33.054Z,2.03
2018-03-23T18:01:00.375Z,2.20
2018-03-23T18:03:27.567Z,2.30
2018-03-23T18:05:55.470Z,2.80
2018-03-23T18:08:23.195Z,2.30
2018-03-23T18:10:49.686Z,2.00
2018-03-23T18:13:16.593Z,2.30
2018-03-23T18:15:43.426Z,2.20
2018-03-23T18:18:10.730Z,2.47
2018-03-23T18:20:37.319Z,2.50
2018-03-23T18:23:04.275Z,2.07
2018-03-23T18:25:31.385Z,2.07
2018-03-23T18:27:58.580Z,2.47
2018-03-23T18:30:25.748Z,2.40
2018-03-23T18:32:52.476Z,2.17
2018-03-23T18:35:19.341Z,2.27
2018-03-23T18:37:46.890Z,2.60
2018-03-23T18:40:13.514Z,4.70
2018-03-23T18:42:40.088Z,4.30
2018-03-23T18:45:07.694Z,4.80
2018-03-23T18:47:34.887Z,4.43
2018-03-23T18:50:03.358Z,4.93
2018-03-23T18:52:30.198Z,4.43
2018-03-23T18:54:57.078Z,4.80
2018-03-23T18:57:23.653Z,4.37
2018-03-23T18:59:51.855Z,5.13
2018-03-23T19:02:18.445Z,4.83
2018-03-23T19:04:45.305Z,4.67
2018-03-23T19:07:12.713Z,5.00
2018-03-23T19:09:40.056Z,5.03
2018-03-23T19:12:08.259Z,4.70
2018-03-23T19:14:35.105Z,5.77
2018-03-23T19:17:01.756Z,4.80
2018-03-23T19:19:28.996Z,5.30
2018-03-23T19:21:56.724Z,5.77
2018-03-23T19:24:23.362Z,5.40
2018-03-23T19:26:50.908Z,5.30
2018-03-23T19:29:17.872Z,4.77
2018-03-23T19:31:45.134Z,5.80
2018-03-23T19:34:12.341Z,5.20
2018-03-23T19:36:40.592Z,4.60
2018-03-23T19:39:08.401Z,5.13
2018-03-23T19:41:35.129Z,9.67
2018-03-23T19:44:03.164Z,6.77
2018-03-23T19:46:30.958Z,6.20
2018-03-23T19:48:59.716Z,6.07
2018-03-23T19:51:26.387Z,4.97
2018-03-23T19:53:53.921Z,4.00
2018-03-23T19:56:21.319Z,4.27
2018-03-23T19:58:48.758Z,3.90
2018-03-23T20:01:16.574Z,3.43
2018-03-23T20:03:44.859Z,2.77
2018-03-23T20:06:13.497Z,3.17
2018-03-23T20:08:40.526Z,3.20
2018-03-23T20:11:08.006Z,2.77
2018-03-23T20:13:34.444Z,2.60
2018-03-23T20:16:01.588Z,2.83
2018-03-23T20:18:28.145Z,2.50
2018-03-23T20:21:01.177Z,2.80
2018-03-23T20:23:27.863Z,2.33
2018-03-23T20:25:55.109Z,2.53
2018-03-23T20:28:28.917Z,2.13
2018-03-23T20:30:55.447Z,2.23
2018-03-23T20:33:21.968Z,2.93
2018-03-23T20:35:49.399Z,2.37
2018-03-23T20:38:17.328Z,2.27
2018-03-23T20:40:44.113Z,2.17
2018-03-23T20:43:10.972Z,2.97
2018-03-23T20:45:38.400Z,2.50
2018-03-23T20:48:05.782Z,2.10
2018-03-23T20:50:33.219Z,2.20
2018-03-23T20:53:00.495Z,2.20
2018-03-23T20:55:29.353Z,2.67
2018-03-23T20:57:56.444Z,2.37
2018-03-23T21:00:24.244Z,2.37
2018-03-23T21:02:51.425Z,2.40
2018-03-23T21:05:18.435Z,2.60
2018-03-23T21:07:45.850Z,2.13
2018-03-23T21:10:13.224Z,2.20
2018-03-23T21:12:39.996Z,3.10
2018-03-23T21:15:07.645Z,2.27
2018-03-23T21:17:34.477Z,2.70
2018-03-23T21:20:01.753Z,2.43
2018-03-23T21:22:28.476Z,2.40
2018-03-23T21:24:56.165Z,2.43
2018-03-23T21:27:22.904Z,2.80
2018-03-23T21:29:49.606Z,2.40
2018-03-23T21:32:17.336Z,2.57
2018-03-23T21:34:44.765Z,2.20
2018-03-23T21:37:11.724Z,2.93
2018-03-23T21:39:38.183Z,3.70
2018-03-23T21:42:05.554Z,3.57
2018-03-23T21:44:32.786Z,3.03
2018-03-23T21:46:59.625Z,3.47
2018-03-23T21:49:26.285Z,3.63
2018-03-23T21:51:53.431Z,3.50
2018-03-23T21:54:20.068Z,3.80
2018-03-23T21:56:46.633Z,2.80
2018-03-23T21:59:13.829Z,3.30
2018-03-23T22:01:40.408Z,3.47
2018-03-23T22:04:07.190Z,3.43
2018-03-23T22:06:34.407Z,3.20
2018-03-23T22:09:01.276Z,2.77
2018-03-23T22:11:27.930Z,3.20
2018-03-23T22:13:54.414Z,3.00
2018-03-23T22:16:20.868Z,2.80
2018-03-23T22:18:48.145Z,2.60
2018-03-23T22:21:14.593Z,2.90
2018-03-23T22:23:41.240Z,3.10
2018-03-23T22:26:08.385Z,2.70
2018-03-23T22:28:34.803Z,2.77
2018-03-23T22:31:01.884Z,2.47
2018-03-23T22:33:28.833Z,3.40
2018-03-23T22:35:55.337Z,2.80
2018-03-23T22:38:23.037Z,2.90
2018-03-23T22:40:49.448Z,2.80
2018-03-23T22:43:16.038Z,3.30
2018-03-23T22:45:43.579Z,2.53
2018-03-23T22:48:10.025Z,2.47
2018-03-23T22:50:36.820Z,3.00
2018-03-23T22:53:03.874Z,2.70
2018-03-23T22:55:31.434Z,2.47
2018-03-23T22:57:57.865Z,2.47
2018-03-23T23:00:24.975Z,2.63
2018-03-23T23:02:51.759Z,2.90
2018-03-23T23:05:18.955Z,2.60
2018-03-23T23:07:46.309Z,2.80
2018-03-23T23:10:12.739Z,2.80
2018-03-23T23:12:40.381Z,2.67
2018-03-23T23:15:06.806Z,2.73
2018-03-23T23:17:34.443Z,3.00
2018-03-23T23:20:00.942Z,2.40
2018-03-23T23:22:28.136Z,2.70
2018-03-23T23:24:55.773Z,2.60
2018-03-23T23:27:22.237Z,3.10
2018-03-23T23:29:48.651Z,2.70
2018-03-23T23:32:15.614Z,2.60
2018-03-23T23:34:43.358Z,2.50
2018-03-23T23:37:10.236Z,2.50
2018-03-23T23:39:37.633Z,2.30
2018-03-23T23:42:04.780Z,2.77
2018-03-23T23:44:32.335Z,2.50
2018-03-23T23:47:01.328Z,2.00
2018-03-23T23:49:27.748Z,2.43
2018-03-23T23:51:55.021Z,2.70
2018-03-23T23:54:21.457Z,2.50
2018-03-23T23:56:49.056Z,2.27
2018-03-23T23:59:16.985Z,2.63
